createdAt,value
2023-03-10T00:00:20.166Z,11.06
2023-03-10T00:03:08.448Z,11.08
2023-03-10T00:05:56.333Z,11.04
2023-03-10T00:08:45.546Z,11.05
2023-03-10T00:11:33.293Z,11.04
2023-03-10T00:14:20.915Z,10.86
2023-03-10T00:17:08.735Z,10.96
2023-03-10T00:19:56.373Z,10.87
2023-03-10T00:22:44.159Z,10.80
2023-03-10T00:25:31.818Z,10.66
2023-03-10T00:28:19.429Z,10.80
2023-03-10T00:31:14.404Z,10.76
2023-03-10T00:34:02.391Z,10.82
2023-03-10T00:36:50.041Z,10.64
2023-03-10T00:39:37.658Z,10.91
2023-03-10T00:42:25.371Z,10.78
2023-03-10T00:45:13.093Z,10.73
2023-03-10T00:48:00.744Z,10.54
2023-03-10T00:50:48.782Z,10.35
2023-03-10T00:53:39.619Z,10.14
2023-03-10T00:56:28.387Z,10.08
2023-03-10T00:59:15.988Z,10.09
2023-03-10T01:02:03.917Z,10.25
2023-03-10T01:04:51.895Z,10.26
2023-03-10T01:07:39.449Z,10.27
2023-03-10T01:10:27.197Z,10.26
2023-03-10T01:13:17.392Z,10.16
2023-03-10T01:16:05.456Z,10.14
2023-03-10T01:18:53.475Z,10.02
2023-03-10T01:21:42.730Z,10.05
2023-03-10T01:24:30.570Z,10.11
2023-03-10T01:27:18.273Z,10.06
2023-03-10T01:30:07.000Z,10.27
2023-03-10T01:32:54.729Z,10.21
2023-03-10T01:35:43.147Z,10.18
2023-03-10T01:38:31.972Z,10.16
2023-03-10T01:41:22.032Z,10.00
2023-03-10T01:44:17.749Z,9.83
2023-03-10T01:47:05.606Z,9.87
2023-03-10T01:49:54.684Z,9.75
2023-03-10T01:52:47.762Z,9.76
2023-03-10T01:55:40.436Z,9.60
2023-03-10T01:58:38.927Z,9.65
2023-03-10T02:01:26.705Z,9.57
2023-03-10T02:04:25.207Z,9.53
2023-03-10T02:07:13.786Z,9.41
2023-03-10T02:10:03.504Z,9.33
2023-03-10T02:12:51.115Z,9.25
2023-03-10T02:15:40.100Z,9.14
2023-03-10T02:18:28.924Z,8.96
2023-03-10T02:21:21.079Z,9.08
2023-03-10T02:24:29.981Z,9.20
2023-03-10T02:27:31.596Z,9.03
2023-03-10T02:30:27.847Z,9.10
2023-03-10T02:33:20.319Z,8.92
2023-03-10T02:36:20.643Z,8.79
2023-03-10T02:39:08.639Z,8.66
2023-03-10T02:41:56.396Z,8.80
2023-03-10T02:44:44.946Z,8.78
2023-03-10T02:47:33.255Z,8.72
2023-03-10T02:50:23.801Z,8.73
2023-03-10T02:53:19.405Z,8.59
2023-03-10T02:56:09.535Z,8.61
2023-03-10T02:58:59.906Z,8.46
2023-03-10T03:01:47.764Z,8.49
2023-03-10T03:04:37.583Z,8.44
2023-03-10T03:07:25.574Z,8.17
2023-03-10T03:10:13.540Z,8.49
2023-03-10T03:13:01.755Z,8.44
2023-03-10T03:15:50.403Z,8.18
2023-03-10T03:18:38.716Z,8.31
2023-03-10T03:21:27.734Z,8.31
2023-03-10T03:24:21.437Z,8.23
2023-03-10T03:27:09.641Z,8.16
2023-03-10T03:30:01.474Z,8.19
2023-03-10T03:32:49.942Z,7.92
2023-03-10T03:35:37.974Z,8.10
2023-03-10T03:38:27.042Z,7.83
2023-03-10T03:41:14.784Z,7.89
2023-03-10T03:44:03.784Z,8.13
2023-03-10T03:46:53.746Z,8.29
2023-03-10T03:49:42.470Z,8.09
2023-03-10T03:52:33.070Z,7.96
2023-03-10T03:55:21.942Z,7.80
2023-03-10T03:58:11.859Z,7.93
2023-03-10T04:00:59.635Z,7.82
2023-03-10T04:03:50.921Z,7.95
2023-03-10T04:06:38.998Z,7.74
2023-03-10T04:09:29.523Z,7.88
2023-03-10T04:12:17.243Z,7.85
2023-03-10T04:15:08.600Z,7.56
2023-03-10T04:17:58.136Z,7.69
2023-03-10T04:20:46.210Z,8.00
2023-03-10T04:23:33.896Z,7.79
2023-03-10T04:26:22.216Z,7.92
2023-03-10T04:29:10.926Z,7.92
2023-03-10T04:32:05.481Z,7.80
2023-03-10T04:34:58.357Z,7.87
2023-03-10T04:37:46.124Z,7.89
2023-03-10T04:40:35.215Z,7.81
2023-03-10T04:43:22.866Z,7.67
2023-03-10T04:46:11.735Z,7.83
2023-03-10T04:49:00.105Z,7.75
2023-03-10T04:51:52.040Z,8.03
2023-03-10T04:54:39.764Z,8.00
2023-03-10T04:57:28.161Z,8.08
2023-03-10T05:00:16.393Z,8.18
2023-03-10T05:03:04.517Z,8.20
2023-03-10T05:05:52.526Z,8.28
2023-03-10T05:08:40.315Z,7.78
2023-03-10T05:11:30.097Z,8.29
2023-03-10T05:14:21.711Z,8.21
2023-03-10T05:17:09.830Z,8.38
2023-03-10T05:20:00.759Z,8.34
2023-03-10T05:22:49.048Z,8.52
2023-03-10T05:25:36.752Z,8.58
2023-03-10T05:28:24.792Z,8.64
2023-03-10T05:31:16.254Z,8.75
2023-03-10T05:34:06.730Z,8.83
2023-03-10T05:36:54.628Z,8.93
2023-03-10T05:39:44.040Z,8.89
2023-03-10T05:42:37.479Z,8.95
2023-03-10T05:45:25.418Z,9.11
2023-03-10T05:48:13.715Z,9.15
2023-03-10T05:51:07.654Z,9.26
2023-03-10T05:53:55.493Z,8.92
2023-03-10T05:56:47.409Z,9.26
2023-03-10T05:59:35.573Z,9.39
2023-03-10T06:02:24.714Z,9.49
2023-03-10T06:05:13.892Z,9.56
2023-03-10T06:08:01.581Z,9.55
2023-03-10T06:10:49.560Z,9.77
2023-03-10T06:13:37.491Z,9.79
2023-03-10T06:16:25.778Z,9.91
2023-03-10T06:19:13.551Z,9.78
2023-03-10T06:22:01.274Z,10.06
2023-03-10T06:24:48.878Z,10.19
2023-03-10T06:27:36.527Z,10.34
2023-03-10T06:30:24.452Z,10.37
2023-03-10T06:33:12.150Z,10.43
2023-03-10T06:36:00.263Z,10.57
2023-03-10T06:38:48.413Z,10.67
2023-03-10T06:41:37.349Z,10.81
2023-03-10T06:44:25.074Z,10.85
2023-03-10T06:47:12.664Z,11.00
2023-03-10T06:50:01.304Z,11.02
2023-03-10T06:52:49.124Z,10.97
2023-03-10T06:55:38.069Z,11.18
2023-03-10T06:58:25.809Z,11.32
2023-03-10T07:01:24.946Z,11.49
2023-03-10T07:04:13.098Z,11.64
2023-03-10T07:07:00.804Z,11.70
2023-03-10T07:09:48.459Z,11.79
2023-03-10T07:12:36.125Z,12.04
2023-03-10T07:15:23.841Z,12.18
2023-03-10T07:18:12.059Z,12.63
2023-03-10T07:20:59.746Z,12.97
2023-03-10T07:23:47.800Z,13.24
2023-03-10T07:26:35.657Z,13.51
2023-03-10T07:29:23.296Z,14.25
2023-03-10T07:32:11.078Z,14.66
2023-03-10T07:34:58.906Z,15.11
2023-03-10T07:37:46.742Z,15.36
2023-03-10T07:40:34.619Z,15.47
2023-03-10T07:43:22.248Z,15.44
2023-03-10T07:46:12.739Z,15.88
2023-03-10T07:49:04.404Z,16.26
2023-03-10T07:51:52.295Z,16.37
2023-03-10T07:54:40.044Z,16.31
2023-03-10T07:57:29.171Z,16.54
2023-03-10T08:00:17.442Z,16.92
2023-03-10T08:03:05.263Z,16.78
2023-03-10T08:05:52.964Z,16.90
2023-03-10T08:08:40.808Z,16.58
2023-03-10T08:11:28.529Z,17.06
2023-03-10T08:14:21.031Z,16.83
2023-03-10T08:17:08.892Z,17.03
2023-03-10T08:19:58.273Z,16.91
2023-03-10T08:22:45.957Z,17.10
2023-03-10T08:25:33.670Z,17.01
2023-03-10T08:28:21.439Z,17.18
2023-03-10T08:31:15.638Z,17.32
2023-03-10T08:34:03.368Z,17.30
2023-03-10T08:36:51.042Z,17.33
2023-03-10T08:39:39.072Z,17.48
2023-03-10T08:42:27.431Z,17.59
2023-03-10T08:45:15.146Z,17.71
2023-03-10T08:48:02.825Z,18.12
2023-03-10T08:50:50.493Z,17.94
2023-03-10T08:53:39.175Z,17.72
2023-03-10T08:56:27.245Z,18.13
2023-03-10T08:59:15.658Z,18.04
2023-03-10T09:02:03.560Z,18.23
2023-03-10T09:04:51.368Z,17.92
2023-03-10T09:07:42.137Z,18.49
2023-03-10T09:10:30.341Z,18.36
2023-03-10T09:13:18.100Z,18.58
2023-03-10T09:16:06.153Z,18.49
2023-03-10T09:18:53.803Z,18.69
2023-03-10T09:21:42.680Z,18.88
2023-03-10T09:24:30.362Z,18.75
2023-03-10T09:27:18.133Z,18.79
2023-03-10T09:30:06.735Z,18.94
2023-03-10T09:32:55.964Z,19.33
2023-03-10T09:35:52.305Z,19.30
2023-03-10T09:38:45.566Z,19.21
2023-03-10T09:41:38.203Z,19.34
2023-03-10T09:45:01.231Z,19.13
2023-03-10T09:48:24.777Z,19.23
2023-03-10T09:51:25.562Z,19.24
2023-03-10T09:54:37.137Z,19.04
2023-03-10T09:57:25.520Z,18.82
2023-03-10T10:00:22.022Z,18.94
2023-03-10T10:03:33.337Z,18.88
2023-03-10T10:06:32.546Z,18.82
2023-03-10T10:09:26.203Z,18.74
2023-03-10T10:12:22.517Z,18.77
2023-03-10T10:15:19.478Z,18.74
2023-03-10T10:18:20.945Z,18.98
2023-03-10T10:21:42.254Z,18.74
2023-03-10T10:24:30.772Z,18.50
2023-03-10T10:27:21.177Z,18.36
2023-03-10T10:30:34.114Z,18.27
2023-03-10T10:33:21.653Z,18.35
2023-03-10T10:36:18.147Z,18.31
2023-03-10T10:39:42.217Z,18.36
2023-03-10T10:42:31.334Z,18.55
2023-03-10T10:45:40.366Z,18.45
2023-03-10T10:48:37.013Z,18.70
2023-03-10T10:51:36.356Z,18.75
2023-03-10T10:54:38.625Z,18.45
2023-03-10T10:57:33.742Z,18.50
2023-03-10T11:00:32.416Z,18.50
2023-03-10T11:03:20.057Z,18.31
2023-03-10T11:06:23.099Z,18.54
2023-03-10T11:09:19.840Z,18.41
2023-03-10T11:12:38.744Z,18.65
2023-03-10T11:15:33.409Z,18.56
2023-03-10T11:18:32.283Z,18.35
2023-03-10T11:21:28.483Z,18.26
2023-03-10T11:24:42.550Z,18.48
2023-03-10T11:27:44.510Z,18.34
2023-03-10T11:30:35.558Z,18.46
2023-03-10T11:33:49.095Z,18.22
2023-03-10T11:37:06.597Z,18.07
2023-03-10T11:40:09.066Z,18.00
2023-03-10T11:43:05.630Z,17.72
2023-03-10T11:45:55.425Z,17.63
2023-03-10T11:49:04.360Z,17.71
2023-03-10T11:52:02.603Z,17.56
2023-03-10T11:55:06.012Z,17.32
2023-03-10T11:57:58.744Z,17.28
2023-03-10T12:00:47.916Z,16.65
2023-03-10T12:04:06.738Z,16.89
2023-03-10T12:07:01.272Z,16.64
2023-03-10T12:09:58.389Z,16.36
2023-03-10T12:12:48.227Z,16.32
2023-03-10T12:15:39.088Z,16.38
2023-03-10T12:18:27.819Z,16.32
2023-03-10T12:21:21.931Z,16.23
2023-03-10T12:24:43.312Z,16.01
2023-03-10T12:27:31.014Z,16.06
2023-03-10T12:30:52.249Z,15.98
2023-03-10T12:33:42.248Z,15.83
2023-03-10T12:36:39.763Z,15.81
2023-03-10T12:39:43.363Z,15.79
2023-03-10T12:42:34.650Z,15.54
2023-03-10T12:45:29.571Z,15.17
2023-03-10T12:48:20.052Z,15.28
2023-03-10T12:51:17.501Z,15.26
2023-03-10T12:54:49.778Z,14.84
2023-03-10T12:57:48.924Z,14.60
2023-03-10T13:00:58.515Z,14.77
2023-03-10T13:03:53.620Z,14.35
2023-03-10T13:06:41.937Z,14.36
2023-03-10T13:09:42.517Z,14.41
2023-03-10T13:12:37.793Z,14.39
2023-03-10T13:15:31.959Z,14.31
2023-03-10T13:18:23.154Z,14.32
2023-03-10T13:21:30.071Z,14.35
2023-03-10T13:24:30.543Z,14.17
2023-03-10T13:27:20.082Z,14.26
2023-03-10T13:30:16.135Z,14.07
2023-03-10T13:33:04.343Z,14.11
2023-03-10T13:35:52.126Z,14.05
2023-03-10T13:38:43.417Z,14.15
2023-03-10T13:41:37.685Z,14.22
2023-03-10T13:44:38.200Z,14.11
2023-03-10T13:47:27.157Z,13.95
2023-03-10T13:50:17.408Z,13.92
2023-03-10T13:53:05.196Z,13.89
2023-03-10T13:55:52.877Z,13.79
2023-03-10T13:58:40.866Z,13.85
2023-03-10T14:01:31.980Z,14.02
2023-03-10T14:04:40.071Z,13.86
2023-03-10T14:07:36.681Z,13.98
2023-03-10T14:10:24.351Z,13.92
2023-03-10T14:13:44.272Z,13.71
2023-03-10T14:16:55.416Z,13.59
2023-03-10T14:19:43.126Z,13.56
2023-03-10T14:22:40.579Z,13.71
2023-03-10T14:25:28.361Z,13.82
2023-03-10T14:28:34.997Z,13.91
2023-03-10T14:31:25.228Z,14.03
2023-03-10T14:34:13.908Z,13.98
2023-03-10T14:37:01.567Z,13.91
2023-03-10T14:39:49.597Z,13.53
2023-03-10T14:42:37.629Z,13.95
2023-03-10T14:45:34.487Z,14.06
2023-03-10T14:48:27.870Z,14.28
2023-03-10T14:51:32.530Z,14.31
2023-03-10T14:54:24.572Z,14.56
2023-03-10T14:57:15.665Z,14.43
2023-03-10T15:00:05.679Z,14.28
2023-03-10T15:02:53.667Z,14.11
2023-03-10T15:05:48.808Z,14.29
2023-03-10T15:08:36.908Z,14.23
2023-03-10T15:11:36.600Z,14.21
2023-03-10T15:14:25.614Z,14.13
2023-03-10T15:17:13.391Z,14.01
2023-03-10T15:20:01.132Z,14.02
2023-03-10T15:22:49.562Z,14.08
2023-03-10T15:25:37.825Z,13.93
2023-03-10T15:28:25.782Z,13.78
2023-03-10T15:31:13.582Z,13.65
2023-03-10T15:34:01.312Z,13.59
2023-03-10T15:36:49.077Z,13.50
2023-03-10T15:39:37.397Z,13.58
2023-03-10T15:42:25.428Z,13.26
2023-03-10T15:45:13.997Z,13.44
2023-03-10T15:48:01.748Z,13.25
2023-03-10T15:50:49.441Z,13.35
2023-03-10T15:53:37.667Z,13.30
2023-03-10T15:56:26.232Z,13.07
2023-03-10T15:59:14.050Z,13.27
2023-03-10T16:02:01.795Z,13.05
2023-03-10T16:04:49.858Z,12.97
2023-03-10T16:07:38.021Z,12.99
2023-03-10T16:10:25.979Z,13.01
2023-03-10T16:13:13.872Z,13.03
2023-03-10T16:16:06.743Z,12.78
2023-03-10T16:18:54.573Z,12.84
2023-03-10T16:21:42.550Z,12.75
2023-03-10T16:24:30.404Z,12.53
2023-03-10T16:27:18.244Z,12.73
2023-03-10T16:30:06.792Z,12.63
2023-03-10T16:32:54.658Z,12.64
2023-03-10T16:35:42.478Z,12.40
2023-03-10T16:38:31.163Z,12.59
2023-03-10T16:41:19.049Z,12.57
2023-03-10T16:44:07.566Z,12.54
2023-03-10T16:46:55.438Z,12.36
2023-03-10T16:49:46.342Z,12.39
2023-03-10T16:52:46.522Z,12.45
2023-03-10T16:55:34.271Z,12.32
2023-03-10T16:58:22.117Z,12.36
2023-03-10T17:01:10.398Z,12.32
2023-03-10T17:03:59.164Z,12.34
2023-03-10T17:06:47.718Z,12.36
2023-03-10T17:09:36.570Z,12.13
2023-03-10T17:12:26.623Z,12.24
2023-03-10T17:15:14.385Z,12.19
2023-03-10T17:18:02.127Z,12.24
2023-03-10T17:20:49.931Z,12.14
2023-03-10T17:23:37.720Z,12.25
2023-03-10T17:26:25.738Z,12.23
2023-03-10T17:29:13.848Z,12.22
2023-03-10T17:32:01.783Z,12.13
2023-03-10T17:34:52.303Z,12.09
2023-03-10T17:37:40.931Z,12.27
2023-03-10T17:40:28.857Z,12.23
2023-03-10T17:43:32.976Z,12.25
2023-03-10T17:46:24.699Z,12.16
2023-03-10T17:49:14.449Z,12.25
2023-03-10T17:52:02.461Z,12.23
2023-03-10T17:54:51.117Z,12.09
2023-03-10T17:57:40.792Z,12.29
2023-03-10T18:00:28.609Z,12.07
2023-03-10T18:03:17.392Z,12.04
2023-03-10T18:06:11.755Z,12.17
2023-03-10T18:09:01.172Z,12.17
2023-03-10T18:11:49.451Z,12.16
2023-03-10T18:14:37.317Z,12.12
2023-03-10T18:17:25.267Z,12.16
2023-03-10T18:20:15.211Z,12.11
2023-03-10T18:23:02.996Z,12.04
2023-03-10T18:25:51.521Z,11.95
2023-03-10T18:28:39.579Z,11.89
2023-03-10T18:31:30.637Z,11.81
2023-03-10T18:34:19.747Z,11.83
2023-03-10T18:37:10.113Z,11.79
2023-03-10T18:39:58.720Z,11.59
2023-03-10T18:42:46.557Z,11.74
2023-03-10T18:45:39.677Z,11.67
2023-03-10T18:48:28.847Z,11.78
2023-03-10T18:51:20.328Z,11.53
2023-03-10T18:54:08.138Z,11.62
2023-03-10T18:56:56.083Z,11.65
2023-03-10T18:59:43.933Z,11.61
2023-03-10T19:02:32.072Z,11.43
2023-03-10T19:05:23.387Z,11.68
2023-03-10T19:08:12.019Z,11.57
2023-03-10T19:11:00.392Z,11.65
2023-03-10T19:13:48.214Z,11.54
2023-03-10T19:16:37.450Z,11.58
2023-03-10T19:19:25.339Z,11.66
2023-03-10T19:22:13.651Z,11.63
2023-03-10T19:25:04.760Z,11.63
2023-03-10T19:27:55.323Z,11.56
2023-03-10T19:30:43.817Z,11.52
2023-03-10T19:33:31.560Z,11.73
2023-03-10T19:36:19.423Z,11.62
2023-03-10T19:39:07.148Z,11.70
2023-03-10T19:41:54.806Z,11.68
2023-03-10T19:44:42.797Z,11.73
2023-03-10T19:47:31.459Z,11.76
2023-03-10T19:50:30.698Z,11.64
2023-03-10T19:58:06.718Z,11.30
2023-03-10T20:00:58.093Z,11.60
2023-03-10T20:03:46.737Z,11.60
2023-03-10T20:06:34.539Z,11.58
2023-03-10T20:09:22.877Z,11.55
2023-03-10T20:12:10.686Z,11.50
2023-03-10T20:15:00.470Z,11.61
2023-03-10T20:17:49.085Z,11.63
2023-03-10T20:20:41.766Z,11.65
2023-03-10T20:23:32.349Z,11.68
2023-03-10T20:26:34.797Z,11.10
2023-03-10T20:29:23.049Z,11.71
2023-03-10T20:32:11.041Z,11.78
2023-03-10T20:34:58.862Z,11.80
2023-03-10T20:37:46.722Z,11.86
2023-03-10T20:40:36.916Z,11.91
2023-03-10T20:43:24.840Z,11.90
2023-03-10T20:46:14.330Z,11.86
2023-03-10T20:49:02.125Z,11.99
2023-03-10T20:51:49.981Z,12.13
2023-03-10T20:54:37.737Z,12.02
2023-03-10T20:57:28.829Z,12.20
2023-03-10T21:00:18.931Z,12.16
2023-03-10T21:03:06.715Z,12.13
2023-03-10T21:05:54.660Z,12.08
2023-03-10T21:08:42.568Z,12.13
2023-03-10T21:11:30.366Z,12.15
2023-03-10T21:14:18.167Z,12.02
2023-03-10T21:17:06.181Z,11.97
2023-03-10T21:19:55.120Z,11.95
2023-03-10T21:22:43.251Z,12.03
2023-03-10T21:25:31.250Z,11.89
2023-03-10T21:28:19.166Z,11.91
2023-03-10T21:31:07.394Z,11.75
2023-03-10T21:33:55.401Z,11.72
2023-03-10T21:36:43.174Z,11.70
2023-03-10T21:39:31.039Z,11.51
2023-03-10T21:42:18.975Z,11.66
2023-03-10T21:45:08.027Z,11.71
2023-03-10T21:47:55.868Z,11.47
2023-03-10T21:50:43.910Z,11.57
2023-03-10T21:53:32.008Z,11.54
2023-03-10T21:56:22.269Z,11.36
2023-03-10T21:59:10.761Z,11.46
2023-03-10T22:01:58.493Z,11.30
2023-03-10T22:04:46.318Z,11.38
2023-03-10T22:07:34.124Z,11.42
2023-03-10T22:10:21.980Z,11.17
2023-03-10T22:13:09.839Z,11.31
2023-03-10T22:15:59.987Z,11.41
2023-03-10T22:18:49.578Z,11.46
2023-03-10T22:21:37.351Z,11.43
2023-03-10T22:24:25.152Z,11.46
2023-03-10T22:27:13.124Z,11.43
2023-03-10T22:30:00.865Z,11.44
2023-03-10T22:32:49.520Z,11.51
2023-03-10T22:35:38.221Z,11.50
2023-03-10T22:38:25.944Z,11.65
2023-03-10T22:41:13.846Z,11.70
2023-03-10T22:44:01.505Z,11.51
2023-03-10T22:46:49.310Z,11.60
2023-03-10T22:49:37.232Z,11.85
2023-03-10T22:52:24.971Z,11.92
2023-03-10T22:55:15.333Z,12.26
2023-03-10T22:58:07.531Z,12.33
2023-03-10T23:00:55.268Z,12.33
2023-03-10T23:03:35.755Z,12.27
2023-03-10T23:06:24.286Z,12.05
2023-03-10T23:09:12.059Z,12.20
2023-03-10T23:11:59.798Z,12.18
2023-03-10T23:14:47.493Z,12.06
2023-03-10T23:17:35.210Z,12.17
2023-03-10T23:20:27.915Z,12.10
2023-03-10T23:23:16.836Z,12.11
2023-03-10T23:26:04.727Z,12.04
2023-03-10T23:28:52.401Z,11.97
2023-03-10T23:31:40.159Z,11.95
2023-03-10T23:34:27.873Z,11.72
2023-03-10T23:37:15.588Z,11.93
2023-03-10T23:40:06.476Z,11.84
2023-03-10T23:42:56.159Z,11.81
2023-03-10T23:45:44.113Z,11.90
2023-03-10T23:48:32.327Z,12.17
2023-03-10T23:51:20.099Z,12.15
2023-03-10T23:54:07.843Z,11.92
2023-03-10T23:56:55.544Z,11.92
2023-03-10T23:59:44.352Z,12.02
